Saturday, April 30, 2016, 12:52 PM EDT

KMDT, Harrisburg International Airport

Location: Middletown, PA, United States Lat: 40.2
Local Time: 12:52 PM EDT (16:52 GMT) Lon: -76.767
Time Zone: US/Eastern Elev: 308 ft

Show me the last for .
Show Decoded

2016-04-30 11:56 METAR KMDT 301556Z 20004KT 10SM OVC025 13/07 A3020 RMK AO2 SLP226 T01280072 =
2016-04-30 10:56 METAR KMDT 301456Z 23003KT 9SM SCT020 OVC048 11/07 A3020 =
2016-04-30 09:56 METAR KMDT 301356Z 00000KT 10SM BKN015 BKN029 OVC048 11/06 A3021 RMK AO2 SLP232
                 T01060061 =
2016-04-30 08:56 METAR KMDT 301256Z VRB03KT 8SM OVC022 09/05 A3021 RMK AO2 SLP233 T00890050 =
2016-04-30 07:56 METAR KMDT 301156Z 06004KT 7SM OVC021 08/05 A3021 =
2016-04-30 06:56 METAR KMDT 301056Z 04003KT 6SM BR OVC017 07/06 A3019 =
2016-04-30 05:56 METAR KMDT 300956Z 05004KT 6SM BR OVC018 07/06 A3018 RMK AO2 SLP222 T00720056 =
2016-04-30 04:56 METAR KMDT 300856Z 00000KT 7SM OVC016 08/06 A3016 RMK AO2 SLP214 60001 T00780061
                 53008 =
2016-04-30 04:48 METAR KMDT 300848Z 06003KT 7SM OVC016 08/06 A3016 RMK AO2 T00780061 =
2016-04-30 04:31 METAR KMDT 300831Z 06004KT 6SM BR SCT010 OVC013 08/06 A3016 =
2016-04-30 03:56 METAR KMDT 300756Z 07003KT 5SM BR OVC009 08/07 A3014 RMK AO2 RAE33 CIG 006V011
                 SLP209 P0000 T00780067 =
2016-04-30 03:52 METAR KMDT 300752Z 06003KT 5SM BR OVC009 08/06 A3014 RMK AO2 RAE33 CIG 007V011
                 P0000 =
2016-04-30 03:38 METAR KMDT 300738Z 06003KT 5SM BR OVC010 08/06 A3014 RMK AO2 RAE33 CIG 006V011
                 P0000 T00780061 =
2016-04-30 02:56 METAR KMDT 300656Z 05005KT 4SM -RA BR OVC006 08/07 A3013 RMK AO2 RAB33 CIG
                 005V008 SLP207 P0001 T00780067 =
2016-04-30 02:43 METAR KMDT 300643Z 07004KT 4SM -RA BR BKN006 OVC011 08/07 A3014 RMK AO2 RAB33
                 P0001 T00830067 =
2016-04-30 02:34 METAR KMDT 300634Z 09003KT 5SM -RA BR SCT006 OVC011 08/07 A3013 RMK AO2 RAB33
                 P0001 T00830067 =
2016-04-30 02:24 METAR KMDT 300624Z 09004KT 7SM OVC010 08/07 A3013 RMK AO2 P0001 T00830067 =
2016-04-30 01:56 METAR KMDT 300556Z 09005KT 4SM BR BKN007 OVC013 08/07 A3014 RMK AO2 CIG 006V010
                 SLP207 RAE18B39 P0000 60003 T00830067 10094 20083 50002 =
2016-04-30 00:56 METAR KMDT 300456Z 10004KT 3SM -RA BR OVC007 08/07 A3014 RMK AO2 DZE15RAB15
                 SLP208 P0000 T00830072 401000072 =
2016-04-29 23:56 METAR KMDT 300356Z 06003KT 3SM -DZ BR BKN005 OVC011 09/08 A3013 =
2016-04-29 23:54 METAR KMDT 300354Z 07003KT 3SM -DZ BR BKN005 OVC011 09/07 A3013 RMK AO2 CIG
                 004V009 PCPN VRY LGT P0001 =
2016-04-29 23:45 METAR KMDT 300345Z 06004KT 2 1/2SM -DZ BR BKN006 BKN013 OVC018 09/08 A3013 RMK
                 AO2 CIG 004V008 P0001 T00890078 =
2016-04-29 23:26 METAR KMDT 300326Z 13006KT 2SM -DZ BR SCT006 BKN013 OVC018 09/07 A3011 RMK AO2
                 P0001 T00890072 =
2016-04-29 23:19 METAR KMDT 300319Z 12005KT 1 3/4SM -DZ BR SCT006 OVC015 09/07 A3012 RMK AO2
                 P0001 T00890072 =
2016-04-29 23:12 METAR KMDT 300312Z 12003KT 1 3/4SM -DZ BR BKN006 OVC012 09/08 A3012 RMK AO2 CIG
                 004V008 P0000 T00890078 =
2016-04-29 22:56 METAR KMDT 300256Z 07004KT 1 3/4SM -DZ BR FEW006 OVC011 09/07 A3012 RMK AO2
                 SLP201 P0001 60002 T00890072 51005 =
2016-04-29 22:53 METAR KMDT 300253Z 07005KT 1 3/4SM -DZ BR FEW006 OVC011 09/08 A3012 RMK AO2
                 P0001 =
2016-04-29 22:33 METAR KMDT 300233Z 08005KT 1 3/4SM -DZ BR OVC010 09/08 A3012 RMK AO2 CIG 006V012
                 P0001 T00890078 =
2016-04-29 21:56 METAR KMDT 300156Z 08005KT 2SM -DZ BR OVC009 09/08 A3011 RMK AO2 CIG 004V010
                 SLP198 P0001 T00890078 =
2016-04-29 20:56 METAR KMDT 300056Z 05003KT 2 1/2SM -DZ BR OVC006 09/08 A3010 RMK AO2 CIG 004V009
                 SLP195 P0000 T00940078 =
2016-04-29 19:56 METAR KMDT 292356Z 12005KT 2SM -DZ BR OVC007 09/08 A3006 =
2016-04-29 18:56 METAR KMDT 292256Z 10006KT 2SM -DZ BR OVC008 09/08 A3004 =
2016-04-29 18:54 METAR KMDT 292254Z 09006KT 2SM -DZ BR OVC008 09/08 A3004 RMK AO2 CIG 005V011
                 P0000 =
2016-04-29 17:56 METAR KMDT 292156Z 13005KT 5SM -DZ BR OVC011 10/08 A3003 RMK AO2 SLP172 P0000
                 T01000078 =
2016-04-29 16:56 METAR KMDT 292056Z 12006KT 6SM -DZ BR OVC011 10/07 A3004 RMK AO2 DZB54 SLP173
                 P0000 60000 T01000072 56011 =
2016-04-29 15:56 METAR KMDT 291956Z 12006KT 6SM BR SCT008 OVC011 09/07 A3004 =
2016-04-29 15:45 METAR KMDT 291945Z 12007KT 5SM BR BKN008 OVC012 09/07 A3004 RMK AO2 T00940072 =
2016-04-29 14:56 METAR KMDT 291856Z 14005KT 6SM BR OVC012 09/07 A3004 =
2016-04-29 13:56 METAR KMDT 291756Z 16003KT 9SM OVC014 09/06 A3007 RMK AO2 SLP185 60010 T00940061
                 10094 20072 55002 =
2016-04-29 13:48 METAR KMDT 291748Z 12006KT 9SM OVC014 09/06 A3007 RMK AO2 T00940061 =
2016-04-29 12:56 METAR KMDT 291656Z 12009KT 10SM OVC016 09/06 A3005 RMK AO2 SLP179 T00940061 =

Support USWX by starting your Amazon purchase here.